Data for 06/20/2013

Time Sea-Level Adjusted Pressure Absolute Pressure Temperature Relative Humidity Dew Point   
(mb) (inHg) (mb) (inHg) (C) (F) (%) (C) (F)
00:05 1013 29.91 842 24.86 9.5 49 44 -2.3 27.9
00:10 1013 29.91 842 24.86 9.4 48.9 45 -2 28.5
00:15 1013 29.91 842 24.86 9.4 48.9 47 -1.3 29.6
00:20 1013 29.91 842 24.86 9.3 48.8 45 -2 28.4
00:25 1013 29.91 842 24.86 9 48.3 47 -1.7 29
00:30 1013 29.91 842 24.86 8.9 47.9 46 -2 28.4
00:35 1013 29.91 842 24.86 8.9 48 46 -2.2 28
00:40 1013 29.91 842 24.86 9.2 48.6 44 -2.3 27.9
00:45 1013 29.91 842 24.86 9.2 48.5 46 -1.8 28.8
00:50 1013 29.91 842 24.86 9.1 48.3 50 -0.8 30.5
00:55 1013 29.91 842 24.86 8.7 47.7 49 -1.2 29.8
01:00 1013 29.91 842 24.86 8.6 47.5 50 -1.3 29.7
01:05 1013 29.91 842 24.86 8.7 47.6 50 -1.1 30
01:10 1013 29.91 842 24.86 8.6 47.5 51 -1 30.3
01:15 1013 29.91 842 24.86 8.5 47.3 51 -1 30.2
01:20 1013 29.91 842 24.86 8.6 47.4 52 -0.7 30.8
01:25 1013 29.91 842 24.86 8.6 47.4 53 -0.5 31.1
01:30 1013 29.91 842 24.86 8.5 47.3 53 -0.5 31.1
01:35 1013 29.91 842 24.86 8.4 47 54 -0.5 31.2
01:40 1013 29.91 842 24.86 8.4 47 53 -0.6 31
01:45 1013 29.91 842 24.86 8.2 46.8 54 -0.5 31.1
01:50 1013 29.91 842 24.86 8 46.4 55 -0.4 31.3
01:55 1013 29.91 842 24.86 7.8 46 57 -0.2 31.7
02:00 1013 29.91 842 24.86 7.9 46.1 55 -0.5 31
02:05 1013 29.91 842 24.86 8 46.4 54 -0.8 30.6
02:10 1013 29.91 842 24.86 8.1 46.5 54 -0.5 31.1
02:15 1013 29.91 842 24.86 8.1 46.7 52 -1.1 30
02:20 1013 29.91 842 24.86 8.4 47.2 51 -1 30.3
02:25 1013 29.91 842 24.86 8.4 47.2 52 -0.7 30.7
02:30 1013 29.91 842 24.86 8.3 46.9 52 -0.9 30.5
02:35 1013 29.91 842 24.86 8.2 46.8 51 -1.3 29.7
02:40 1013 29.91 842 24.86 8.3 47 54 -0.5 31.1
02:45 1013 29.91 843 24.89 7.7 45.9 57 -0.3 31.4
02:50 1013 29.91 843 24.89 7.4 45.2 56 -0.8 30.5
02:55 1013 29.91 842 24.86 7.5 45.4 55 -1 30.3
03:00 1013 29.91 842 24.86 7.5 45.4 56 -0.8 30.6
03:05 1013 29.91 842 24.86 7.4 45.3 57 -0.5 31.2
03:10 1013 29.91 842 24.86 7.3 45.1 58 -0.5 31.2
03:15 1013 29.91 842 24.86 7.2 44.9 56 -1 30.3
03:20 1013 29.91 842 24.86 7.2 45 57 -0.8 30.6
03:25 1013 29.91 842 24.86 7.2 45 56 -1 30.2
03:30 1013 29.91 842 24.86 7.6 45.7 56 -0.6 30.9
03:35 1013 29.91 842 24.86 7.6 45.8 58 -0.2 31.7
03:40 1013 29.91 842 24.86 7.4 45.3 56 -0.8 30.6
03:45 1013 29.91 843 24.89 7.8 46.1 54 -1 30.3
03:50 1013 29.91 843 24.89 8.2 46.7 56 -0.1 31.8
03:55 1013 29.91 843 24.89 8 46.4 57 -0 31.9
04:00 1013 29.91 843 24.89 7.8 46 58 0.1 32.2
04:05 1013 29.91 843 24.89 7.6 45.7 59 0.1 32.2
04:10 1013 29.91 843 24.89 7.4 45.3 61 0.3 32.6
04:15 1014 29.94 843 24.89 7.1 44.7 62 0.3 32.5
04:20 1014 29.94 843 24.89 6.7 44 62 0 32.1
04:25 1014 29.94 843 24.89 6.8 44.2 64 0.4 32.8
04:30 1014 29.94 843 24.89 6.4 43.5 63 -0.2 31.7
04:35 1014 29.94 843 24.89 6.5 43.8 62 -0.3 31.5
04:40 1014 29.94 843 24.89 6.9 44.5 59 -0.4 31.2
04:45 1014 29.94 843 24.89 7.1 44.8 61 0.2 32.3
04:50 1014 29.94 843 24.89 7.2 45 56 -1 30.1
04:55 1014 29.94 843 24.89 7.7 45.9 62 1 33.8
05:00 1014 29.94 843 24.89 7.1 44.8 64 0.7 33.3
05:05 1014 29.94 843 24.89 7 44.5 62 0.3 32.5
05:10 1014 29.94 843 24.89 7 44.6 66 1.1 34
05:15 1014 29.94 843 24.89 6.5 43.8 67 0.8 33.5
05:20 1014 29.94 843 24.89 6.7 44.1 59 -0.7 30.8
05:25 1014 29.94 844 24.92 7 44.7 60 -0.2 31.6
05:30 1014 29.94 844 24.92 7.3 45.1 60 0 32.1
05:35 1014 29.94 844 24.92 7.4 45.2 65 1.1 34
05:40 1015 29.97 844 24.92 7 44.6 63 0.5 32.9
05:45 1015 29.97 844 24.92 7.1 44.7 63 0.6 33.1
05:50 1015 29.97 844 24.92 7.2 45 62 0.4 32.8
05:55 1015 29.97 844 24.92 7.5 45.4 56 -0.7 30.7
06:00 1015 29.97 844 24.92 8 46.3 57 -0.1 31.9
06:05 1015 29.97 844 24.92 8.3 46.9 53 -0.6 30.9
06:10 1015 29.97 844 24.92 8.4 47.1 53 -0.5 31.1
06:15 1015 29.97 844 24.92 8.8 47.8 52 -0.6 30.9
06:20 1015 29.97 844 24.92 9.1 48.4 59 1.5 34.7
06:25 1015 29.97 844 24.92 8.6 47.4 60 1.3 34.4
06:30 1015 29.97 844 24.92 8.8 47.8 61 1.7 35
06:35 1015 29.97 844 24.92 8.7 47.7 64 2.4 36.4
06:40 1015 29.97 844 24.92 8.2 46.8 66 2.2 36
06:45 1015 29.97 844 24.92 8.1 46.6 65 1.9 35.3
06:50 1015 29.97 844 24.92 8.3 46.9 62 1.4 34.5
06:55 1015 29.97 844 24.92 8.5 47.3 59 1 33.7
07:00 1015 29.97 844 24.92 8.8 47.8 58 0.9 33.6
07:05 1015 29.97 845 24.95 8.9 48 54 0.1 32.2
07:10 1015 29.97 845 24.95 9.1 48.3 55 0.4 32.8
07:15 1015 29.97 845 24.95 9.4 48.8 51 -0.2 31.6
07:20 1015 29.97 845 24.95 9.7 49.4 49 -0.4 31.3
07:25 1015 29.97 845 24.95 9.8 49.6 50 -0.1 31.9
07:30 1016 30 845 24.95 9.7 49.4 51 0.1 32.2
07:35 1016 30 845 24.95 9.8 49.7 52 0.4 32.7
07:40 1016 30 845 24.95 10.2 50.4 52 0.8 33.5
07:45 1016 30 845 24.95 10.6 51 41 -2 28.5
07:50 1016 30 845 24.95 10.7 51.2 43 -1.3 29.6
07:55 1016 30 845 24.95 11 51.9 39 -2.5 27.6
08:00 1016 30 845 24.95 11.4 52.6 37 -2.9 26.8
08:05 1016 30 845 24.95 12 53.5 35 -3 26.5
08:10 1016 30 845 24.95 12.7 54.8 34 -2.6 27.4
08:15 1016 30 845 24.95 12.5 54.6 33 -3.1 26.4
08:20 1016 30 845 24.95 11.8 53.3 33 -3.8 25.2
08:25 1016 30 845 24.95 11.7 53.1 33 -3.8 25.2
08:30 1016 30 845 24.95 11.6 52.9 34 -3.7 25.3
08:35 1016 30 845 24.95 11.6 52.9 36 -3 26.5
08:40 1016 30 845 24.95 11.5 52.8 35 -3.5 25.7
08:45 1016 30 845 24.95 11.6 52.8 35 -3.5 25.7
08:50 1016 30 845 24.95 11.8 53.2 32 -4.2 24.5
08:55 1016 30 845 24.95 11.6 53 35 -3.4 25.8
09:00 1016 30 845 24.95 11.7 53.1 34 -3.8 25.2
09:05 1016 30 845 24.95 11.7 53 32 -4.2 24.4
09:10 1016 30 845 24.95 11.8 53.2 36 -2.9 26.8
09:15 1016 30 845 24.95 12 53.7 34 -3.4 25.9
09:20 1016 30 845 24.95 12.1 53.7 33 -3.6 25.5
09:25 1016 30 845 24.95 12.1 53.8 33 -3.6 25.5
09:30 1016 30 845 24.95 12.3 54.1 33 -3.4 25.9
09:35 1016 30 845 24.95 12.4 54.4 31 -4.1 24.7
09:40 1016 30 845 24.95 12.4 54.4 30 -4.6 23.8
09:45 1016 30 845 24.95 12.7 54.9 30 -4.3 24.3
09:50 1016 30 845 24.95 13.2 55.7 29 -4.6 23.8
09:55 1016 30 845 24.95 13.3 55.9 28 -4.8 23.3
10:00 1016 30 845 24.95 13.3 56 29 -4.2 24.4
10:05 1016 30 845 24.95 13.1 55.6 29 -4.6 23.7
10:10 1016 30 845 24.95 13.3 55.9 28 -4.7 23.5
10:15 1016 30 845 24.95 13.9 56.9 28 -4.2 24.4
10:20 1016 30 845 24.95 13.6 56.6 28 -4.5 24
10:25 1016 30 845 24.95 13.1 55.5 28 -5 23
10:30 1016 30 845 24.95 13.1 55.6 29 -4.3 24.3
10:35 1016 30 845 24.95 13.3 55.9 28 -4.6 23.7
10:40 1016 30 845 24.95 13.5 56.3 28 -4.4 24.1
10:45 1016 30 846 24.98 13.6 56.4 30 -3.7 25.4
10:50 1017 30.03 846 24.98 13.3 56 35 -1.6 29.2
10:55 1017 30.03 846 24.98 13.1 55.6 35 -2 28.3
11:00 1017 30.03 846 24.98 13.2 55.7 34 -2.3 27.9
11:05 1017 30.03 846 24.98 13.3 56 36 -1.3 29.7
11:10 1017 30.03 846 24.98 13.1 55.5 43 0.8 33.4
11:15 1017 30.03 846 24.98 12.4 54.3 45 0.9 33.6
11:20 1017 30.03 846 24.98 11.9 53.3 53 2.7 36.8
11:25 1017 30.03 846 24.98 11.2 52.2 55 2.5 36.5
11:30 1017 30.03 846 24.98 11 51.8 58 3.2 37.7
11:35 1017 30.03 846 24.98 11.3 52.4 58 3.3 38
11:40 1017 30.03 846 24.98 11.5 52.6 50 1.5 34.6
11:45 1017 30.03 846 24.98 11.7 53.1 45 0.2 32.4
11:50 1017 30.03 846 24.98 11.9 53.4 48 1.2 34.2
11:55 1017 30.03 846 24.98 11.4 52.5 50 1.5 34.7
12:00 1017 30.03 846 24.98 11.6 52.9 49 1.3 34.3
12:05 1017 30.03 846 24.98 11.7 53 48 1.1 34
12:10 1017 30.03 846 24.98 11.4 52.5 45 0.1 32.1
12:15 1017 30.03 846 24.98 11.3 52.4 44 -0.5 31
12:20 1017 30.03 846 24.98 11.4 52.4 48 0.8 33.5
12:25 1017 30.03 846 24.98 11.3 52.3 52 1.8 35.2
12:30 1017 30.03 846 24.98 11.2 52.1 51 1.4 34.6
12:35 1017 30.03 846 24.98 11.2 52.2 55 2.5 36.5
12:40 1017 30.03 846 24.98 11.6 52.8 55 2.8 37
12:45 1017 30.03 846 24.98 12.1 53.7 49 1.8 35.3
12:50 1017 30.03 846 24.98 13.1 55.5 44 1.1 34
12:55 1017 30.03 846 24.98 13.1 55.7 43 1 33.9
13:00 1017 30.03 846 24.98 13.2 55.8 43 1.1 34
13:05 1017 30.03 846 24.98 13.6 56.4 38 -0.4 31.2
13:10 1017 30.03 846 24.98 14.1 57.5 36 -0.6 31
13:15 1017 30.03 846 24.98 14.6 58.3 33 -1.5 29.3
13:20 1017 30.03 846 24.98 14.9 58.7 33 -1.4 29.6
13:25 1017 30.03 846 24.98 15.4 59.7 32 -1.1 30
13:30 1017 30.03 846 24.98 15 58.9 32 -1.7 29
13:35 1017 30.03 846 24.98 15.2 59.4 33 -1 30.2
13:40 1017 30.03 846 24.98 14.9 58.9 32 -1.8 28.8
13:45 1017 30.03 846 24.98 16.2 61.1 30 -1.2 29.9
13:50 1017 30.03 846 24.98 17.1 62.8 28 -1.2 29.9
13:55 1017 30.03 846 24.98 17.2 63 29 -1 30.2
14:00 1017 30.03 846 24.98 16.4 61.4 30 -1.1 30
14:05 1017 30.03 846 24.98 15.8 60.5 30 -1.5 29.4
14:10 1017 30.03 846 24.98 16.8 62.2 29 -1.4 29.5
14:15 1017 30.03 846 24.98 16.8 62.3 27 -2.3 27.9
14:20 1017 30.03 846 24.98 17.4 63.3 24 -3.3 26.1
14:25 1017 30.03 846 24.98 17.6 63.7 26 -2 28.4
14:30 1017 30.03 846 24.98 17.9 64.2 24 -2.6 27.2
14:35 1017 30.03 846 24.98 18.2 64.8 27 -1 30.1
14:40 1017 30.03 846 24.98 18.6 65.5 27 -0.8 30.5
14:45 1017 30.03 846 24.98 17.6 63.6 27 -1.3 29.6
14:50 1017 30.03 846 24.98 16.9 62.5 25 -2.9 26.8
14:55 1017 30.03 846 24.98 16.9 62.4 26 -2.5 27.6
15:00 1017 30.03 846 24.98 16.5 61.6 27 -2.4 27.7
15:05 1017 30.03 846 24.98 17.5 63.4 23 -3.7 25.4
15:10 1016 30 846 24.98 17.9 64.2 24 -2.7 27.1
15:15 1016 30 846 24.98 17.9 64.1 22 -4.1 24.6
15:20 1017 30.03 846 24.98 18.6 65.5 22 -3.6 25.6
15:25 1017 30.03 846 24.98 19.3 66.7 21 -3.4 25.9
15:30 1017 30.03 846 24.98 18.6 65.5 23 -3.1 26.5
15:35 1017 30.03 846 24.98 18.3 64.9 21 -4.4 24.1
15:40 1017 30.03 846 24.98 17.3 63.1 23 -3.7 25.4
15:45 1017 30.03 846 24.98 16.4 61.6 23 -4.8 23.4
15:50 1017 30.03 846 24.98 16.5 61.6 24 -4.1 24.7
15:55 1017 30.03 846 24.98 16.8 62.2 23 -4.1 24.7
16:00 1017 30.03 846 24.98 17.3 63.2 21 -5 23
16:05 1017 30.03 846 24.98 17.6 63.7 21 -4.7 23.5
16:10 1017 30.03 846 24.98 17.8 64 19 -5.7 21.7
16:15 1017 30.03 846 24.98 17.7 63.8 21 -4.7 23.5
16:20 1017 30.03 846 24.98 17.3 63.1 21 -5.4 22.2
16:25 1017 30.03 846 24.98 17.5 63.4 20 -5.4 22.4
16:30 1017 30.03 846 24.98 17.7 63.8 21 -5.1 22.8
16:35 1017 30.03 846 24.98 17.5 63.6 21 -5.2 22.6
16:40 1017 30.03 846 24.98 17.8 64.1 21 -4.8 23.3
16:45 1017 30.03 846 24.98 18 64.3 19 -5.8 21.5
16:50 1017 30.03 846 24.98 18.1 64.6 18 -6.8 19.8
16:55 1017 30.03 846 24.98 17.9 64.2 19 -5.7 21.7
17:00 1017 30.03 846 24.98 18.1 64.6 18 -6.2 20.8
17:05 1017 30.03 846 24.98 18.4 65 19 -5.2 22.6
17:10 1017 30.03 846 24.98 17.7 63.9 20 -5.5 22
17:15 1017 30.03 846 24.98 17.9 64.2 20 -5.4 22.3
17:20 1017 30.03 846 24.98 17.6 63.7 20 -5.4 22.3
17:25 1017 30.03 846 24.98 17.4 63.4 20 -5.7 21.8
17:30 1017 30.03 846 24.98 18 64.4 20 -5.1 22.7
17:35 1017 30.03 846 24.98 18.4 65.2 19 -5.6 22
17:40 1016 30 846 24.98 18.6 65.6 19 -5.4 22.3
17:45 1017 30.03 846 24.98 18.5 65.4 19 -5.4 22.3
17:50 1017 30.03 846 24.98 18.6 65.4 19 -5.6 22
17:55 1017 30.03 846 24.98 18.6 65.6 20 -4.8 23.4
18:00 1017 30.03 846 24.98 18.7 65.6 19 -5.3 22.4
18:05 1017 30.03 846 24.98 18.6 65.5 18 -6 21.2
18:10 1017 30.03 846 24.98 18.5 65.4 17 -6.5 20.3
18:15 1017 30.03 846 24.98 18.5 65.3 18 -6.5 20.3
18:20 1017 30.03 846 24.98 18.2 64.8 18 -6.7 20
18:25 1017 30.03 846 24.98 17.9 64.2 19 -5.8 21.5
18:30 1017 30.03 846 24.98 17.4 63.2 19 -6.1 21
18:35 1017 30.03 846 24.98 17.2 62.9 20 -5.6 21.9
18:40 1017 30.03 846 24.98 17 62.5 21 -5.5 22.2
18:45 1017 30.03 846 24.98 16.8 62.2 22 -4.7 23.6
18:50 1017 30.03 846 24.98 16.4 61.5 25 -3.4 25.8
18:55 1017 30.03 846 24.98 16.2 61.2 25 -3.7 25.4
19:00 1017 30.03 846 24.98 16.2 61.1 24 -4.4 24
19:05 1017 30.03 846 24.98 16.1 61 24 -4.3 24.2
19:10 1017 30.03 846 24.98 15.9 60.6 24 -4.3 24.3
19:15 1017 30.03 846 24.98 15.8 60.4 24 -4.5 23.9
19:20 1017 30.03 846 24.98 15.7 60.3 25 -4.3 24.3
19:25 1017 30.03 846 24.98 15.6 60.1 25 -4.4 24.1
19:30 1017 30.03 846 24.98 15.6 60.1 24 -4.5 23.8
19:35 1017 30.03 846 24.98 15.6 60.1 24 -4.9 23.1
19:40 1017 30.03 846 24.98 15.6 60.1 25 -4.4 24
19:45 1017 30.03 846 24.98 15.5 60 25 -4.4 24.2
19:50 1017 30.03 846 24.98 15.4 59.7 25 -4.4 24.1
19:55 1017 30.03 847 25.01 15.3 59.6 26 -4.1 24.6
20:00 1017 30.03 847 25.01 15.3 59.6 26 -4.1 24.7
20:05 1017 30.03 847 25.01 15.4 59.6 28 -2.9 26.8
20:10 1018 30.06 847 25.01 15.2 59.3 30 -2.2 28
20:15 1018 30.06 847 25.01 14.7 58.5 32 -1.9 28.6
20:20 1018 30.06 847 25.01 14.4 57.8 32 -2 28.4
20:25 1018 30.06 847 25.01 14.2 57.6 32 -2 28.4
20:30 1018 30.06 847 25.01 14 57.3 34 -1.5 29.4
20:35 1018 30.06 847 25.01 13.6 56.5 38 -0.3 31.5
20:40 1018 30.06 847 25.01 13.3 55.9 39 -0.5 31.1
20:45 1018 30.06 847 25.01 13 55.4 39 -0.5 31
20:50 1018 30.06 847 25.01 12.8 55 39 -0.6 30.8
20:55 1018 30.06 847 25.01 12.7 54.9 40 -0.6 30.9
21:00 1018 30.06 848 25.04 12.7 54.8 40 -0.5 31.2
21:05 1018 30.06 848 25.04 12.6 54.7 40 -0.4 31.3
21:10 1018 30.06 848 25.04 12.6 54.6 42 -0.1 31.9
21:15 1018 30.06 848 25.04 12.5 54.4 41 -0.3 31.5
21:20 1018 30.06 848 25.04 12.4 54.4 40 -0.6 30.9
21:25 1018 30.06 848 25.04 12.4 54.2 41 -0.4 31.3
21:30 1019 30.09 848 25.04 12.2 54 40 -0.8 30.5
21:35 1019 30.09 848 25.04 12.1 53.9 41 -0.7 30.7
21:40 1019 30.09 848 25.04 12 53.6 41 -0.8 30.6
21:45 1019 30.09 848 25.04 11.9 53.4 44 0.2 32.3
21:50 1019 30.09 848 25.04 11.2 52.1 49 0.9 33.5
21:55 1019 30.09 848 25.04 10.7 51.3 46 -0.4 31.2
22:00 1019 30.09 848 25.04 10.8 51.5 45 -0.5 31.2
22:05 1019 30.09 848 25.04 10.8 51.4 49 0.5 32.9
22:10 1019 30.09 848 25.04 10.2 50.4 50 0.3 32.6
22:15 1019 30.09 848 25.04 10 50 50 0.2 32.3
22:20 1019 30.09 848 25.04 9.9 49.9 52 0.6 33.2
22:25 1019 30.09 848 25.04 9.4 49 54 0.7 33.2
22:30 1019 30.09 848 25.04 9.1 48.3 54 0.2 32.3
22:35 1019 30.09 848 25.04 9 48.2 53 0.1 32.2
22:40 1019 30.09 848 25.04 9 48.2 53 0.1 32.1
22:45 1019 30.09 848 25.04 8.8 47.8 53 -0.1 31.8
22:50 1019 30.09 848 25.04 8.7 47.6 54 -0.1 31.8
22:55 1019 30.09 848 25.04 8.5 47.3 54 -0.1 31.8
23:00 1019 30.09 848 25.04 8.5 47.4 54 -0.3 31.5
23:05 1019 30.09 848 25.04 8.6 47.4 56 0.2 32.4
23:10 1019 30.09 848 25.04 8.1 46.5 57 0 32
23:15 1019 30.09 848 25.04 8 46.3 57 -0 31.9
23:20 1019 30.09 848 25.04 7.7 45.9 59 0.1 32.3
23:25 1019 30.09 848 25.04 7.6 45.6 58 -0.2 31.7
23:30 1019 30.09 848 25.04 7.7 45.8 58 -0.1 31.8
23:35 1019 30.09 848 25.04 7.8 46.1 57 -0.2 31.7
23:40 1019 30.09 848 25.04 7.9 46.2 57 -0.1 31.8
23:45 1019 30.09 848 25.04 7.9 46.2 56 -0.2 31.6
23:50 1019 30.09 848 25.04 7.9 46.3 56 -0.4 31.3
23:55 1019 30.09 848 25.04 8 46.4 54 -0.7 30.7
24:00 1019 30.09 848 25.04 8.2 46.8 55 -0.4 31.3